createdAt,value
2018-07-29T00:00:56.177Z,12.83
2018-07-29T00:03:23.181Z,14.70
2018-07-29T00:05:50.189Z,12.33
2018-07-29T00:08:17.196Z,12.37
2018-07-29T00:10:44.167Z,11.90
2018-07-29T00:13:11.201Z,12.70
2018-07-29T00:15:38.469Z,15.63
2018-07-29T00:18:05.513Z,9.83
2018-07-29T00:20:32.609Z,10.57
2018-07-29T00:22:59.616Z,12.30
2018-07-29T00:25:26.649Z,10.43
2018-07-29T00:27:53.701Z,12.40
2018-07-29T00:30:20.741Z,11.87
2018-07-29T00:32:54.532Z,13.63
2018-07-29T00:35:21.897Z,13.13
2018-07-29T00:37:48.869Z,15.30
2018-07-29T00:40:15.840Z,10.20
2018-07-29T00:42:42.833Z,11.70
2018-07-29T00:45:09.849Z,11.23
2018-07-29T00:47:36.837Z,13.53
2018-07-29T00:50:04.214Z,13.33
2018-07-29T00:52:31.197Z,12.13
2018-07-29T00:54:58.173Z,15.50
2018-07-29T00:57:25.186Z,12.43
2018-07-29T00:59:52.145Z,13.90
2018-07-29T01:02:19.172Z,15.37
2018-07-29T01:04:46.173Z,14.23
2018-07-29T01:07:13.154Z,18.23
2018-07-29T01:09:40.181Z,12.90
2018-07-29T01:12:07.185Z,14.63
2018-07-29T01:14:34.186Z,17.27
2018-07-29T01:17:01.213Z,18.93
2018-07-29T01:19:28.229Z,17.30
2018-07-29T01:21:55.221Z,19.53
2018-07-29T01:24:22.233Z,18.20
2018-07-29T01:26:49.244Z,19.77
2018-07-29T01:29:16.245Z,18.80
2018-07-29T01:31:43.221Z,19.30
2018-07-29T01:34:10.200Z,18.70
2018-07-29T01:36:37.177Z,21.83
2018-07-29T01:39:05.624Z,17.87
2018-07-29T01:41:32.621Z,18.07
2018-07-29T01:43:59.597Z,21.00
2018-07-29T01:46:26.588Z,18.20
2018-07-29T01:48:53.580Z,17.67
2018-07-29T01:51:20.561Z,16.40
2018-07-29T01:53:47.557Z,16.73
2018-07-29T01:56:14.581Z,16.13
2018-07-29T01:58:41.605Z,17.17
2018-07-29T02:01:08.626Z,18.23
2018-07-29T02:03:35.617Z,15.57
2018-07-29T02:06:02.605Z,16.80
2018-07-29T02:08:29.625Z,18.10
2018-07-29T02:10:56.631Z,12.67
2018-07-29T02:13:23.725Z,18.27
2018-07-29T02:15:50.753Z,12.43
2018-07-29T02:18:17.737Z,14.13
2018-07-29T02:20:44.721Z,14.40
2018-07-29T02:23:11.700Z,18.33
2018-07-29T02:25:38.679Z,17.03
2018-07-29T02:28:05.805Z,19.80
2018-07-29T02:30:32.801Z,18.03
2018-07-29T02:32:59.785Z,12.87
2018-07-29T02:35:26.797Z,12.80
2018-07-29T02:37:53.774Z,19.00
2018-07-29T02:40:20.845Z,14.20
2018-07-29T02:42:47.826Z,14.20
2018-07-29T02:45:15.141Z,13.03
2018-07-29T02:47:42.162Z,12.50
2018-07-29T02:50:09.193Z,10.90
2018-07-29T02:52:36.173Z,15.03
2018-07-29T02:55:03.453Z,13.53
2018-07-29T02:57:30.489Z,15.83
2018-07-29T02:59:57.526Z,14.30
2018-07-29T03:02:24.498Z,17.37
2018-07-29T03:04:51.501Z,11.13
2018-07-29T03:07:18.494Z,15.97
2018-07-29T03:09:45.488Z,11.00
2018-07-29T03:12:12.846Z,17.30
2018-07-29T03:14:39.867Z,11.33
2018-07-29T03:17:06.869Z,16.50
2018-07-29T03:19:33.866Z,14.40
2018-07-29T03:22:00.928Z,11.90
2018-07-29T03:24:28.205Z,14.87
2018-07-29T03:26:55.249Z,12.80
2018-07-29T03:29:22.231Z,11.30
2018-07-29T03:31:49.211Z,9.63
2018-07-29T03:34:16.217Z,10.33
2018-07-29T03:36:43.189Z,8.30
2018-07-29T03:39:11.182Z,10.90
2018-07-29T03:41:38.221Z,8.57
2018-07-29T03:44:05.844Z,10.90
2018-07-29T03:46:32.832Z,9.70
2018-07-29T03:48:59.857Z,9.27
2018-07-29T03:51:26.844Z,8.40
2018-07-29T03:53:53.944Z,7.80
2018-07-29T03:56:21.717Z,12.03
2018-07-29T03:58:48.725Z,10.13
2018-07-29T04:01:15.692Z,8.83
2018-07-29T04:03:42.673Z,8.13
2018-07-29T04:06:09.669Z,6.33
2018-07-29T04:08:36.664Z,15.40
2018-07-29T04:11:03.656Z,8.83
2018-07-29T04:13:30.636Z,3.60
2018-07-29T04:15:57.678Z,11.27
2018-07-29T04:18:24.705Z,7.37
2018-07-29T04:20:52.465Z,8.37
2018-07-29T04:23:19.441Z,10.90
2018-07-29T04:25:46.513Z,8.43
2018-07-29T04:28:13.610Z,5.20
2018-07-29T04:30:40.617Z,7.20
2018-07-29T04:33:07.581Z,7.30
2018-07-29T04:35:34.726Z,6.33
2018-07-29T04:38:01.693Z,6.00
2018-07-29T04:40:28.700Z,9.77
2018-07-29T04:42:55.759Z,8.33
2018-07-29T04:45:22.761Z,9.63
2018-07-29T04:47:49.785Z,6.27
2018-07-29T04:50:16.821Z,6.73
2018-07-29T04:52:43.828Z,4.80
2018-07-29T04:55:10.805Z,5.13
2018-07-29T04:57:37.801Z,6.67
2018-07-29T05:00:05.033Z,10.23
2018-07-29T05:02:32.006Z,4.27
2018-07-29T05:04:59.037Z,5.50
2018-07-29T05:07:26.179Z,6.10
2018-07-29T05:09:53.253Z,7.03
2018-07-29T05:12:20.272Z,5.47
2018-07-29T05:14:47.489Z,8.90
2018-07-29T05:17:14.511Z,7.83
2018-07-29T05:19:41.609Z,7.93
2018-07-29T05:22:08.606Z,11.13
2018-07-29T05:24:35.641Z,8.43
2018-07-29T05:27:02.641Z,6.50
2018-07-29T05:29:29.649Z,7.50
2018-07-29T05:31:56.705Z,8.13
2018-07-29T05:34:23.777Z,11.27
2018-07-29T05:36:50.792Z,4.23
2018-07-29T05:39:17.806Z,6.23
2018-07-29T05:41:44.822Z,3.53
2018-07-29T05:44:12.501Z,4.87
2018-07-29T05:46:39.613Z,6.00
2018-07-29T05:49:07.073Z,3.83
2018-07-29T05:51:34.222Z,6.73
2018-07-29T05:54:01.362Z,5.97
2018-07-29T05:56:28.472Z,4.80
2018-07-29T05:58:56.284Z,7.07
2018-07-29T06:01:23.319Z,7.70
2018-07-29T06:03:50.360Z,6.33
2018-07-29T06:06:17.449Z,5.57
2018-07-29T06:08:44.981Z,4.70
2018-07-29T06:11:12.010Z,9.23
2018-07-29T06:13:39.560Z,6.30
2018-07-29T06:16:06.853Z,3.67
2018-07-29T06:18:33.913Z,5.63
2018-07-29T06:21:01.451Z,5.33
2018-07-29T06:23:28.745Z,6.03
2018-07-29T06:25:55.865Z,6.53
2018-07-29T06:28:23.009Z,7.67
2018-07-29T06:30:50.034Z,2.47
2018-07-29T06:33:17.613Z,5.97
2018-07-29T06:35:51.438Z,8.20
2018-07-29T06:38:18.457Z,3.60
2018-07-29T06:40:45.493Z,4.67
2018-07-29T06:43:12.481Z,5.60
2018-07-29T06:45:39.490Z,14.57
2018-07-29T06:48:06.541Z,7.10
2018-07-29T06:50:33.789Z,3.20
2018-07-29T06:53:00.965Z,6.10
2018-07-29T06:55:27.955Z,9.13
2018-07-29T06:57:54.921Z,4.97
2018-07-29T07:00:21.901Z,6.33
2018-07-29T07:02:49.045Z,6.40
2018-07-29T07:05:16.029Z,6.20
2018-07-29T07:07:43.057Z,4.10
2018-07-29T07:10:10.053Z,6.90
2018-07-29T07:12:37.089Z,6.77
2018-07-29T07:15:35.673Z,5.80
2018-07-29T07:18:02.764Z,4.60
2018-07-29T07:20:29.713Z,4.57
2018-07-29T07:22:56.914Z,5.23
2018-07-29T07:25:23.950Z,4.50
2018-07-29T07:27:51.550Z,4.83
2018-07-29T07:30:18.648Z,6.33
2018-07-29T07:32:45.695Z,5.77
2018-07-29T07:35:12.653Z,4.23
2018-07-29T07:37:39.657Z,8.20
2018-07-29T07:40:06.761Z,5.20
2018-07-29T07:42:33.756Z,8.03
2018-07-29T07:45:00.724Z,4.80
2018-07-29T07:47:27.722Z,10.80
2018-07-29T07:49:54.709Z,3.43
2018-07-29T07:52:21.673Z,5.27
2018-07-29T07:54:48.649Z,8.20
2018-07-29T07:57:15.633Z,7.70
2018-07-29T07:59:42.652Z,11.23
2018-07-29T08:02:09.767Z,8.50
2018-07-29T08:04:36.857Z,7.97
2018-07-29T08:07:04.014Z,7.40
2018-07-29T08:09:30.985Z,7.67
2018-07-29T08:11:58.631Z,8.70
2018-07-29T08:14:25.761Z,4.67
2018-07-29T08:16:52.949Z,10.43
2018-07-29T08:19:19.955Z,6.90
2018-07-29T08:21:46.961Z,9.07
2018-07-29T08:24:13.976Z,8.73
2018-07-29T08:26:41.021Z,7.07
2018-07-29T08:29:08.001Z,9.23
2018-07-29T08:31:34.976Z,5.50
2018-07-29T08:34:01.973Z,4.90
2018-07-29T08:36:28.961Z,8.30
2018-07-29T08:38:55.982Z,6.07
2018-07-29T08:41:22.982Z,6.23
2018-07-29T08:43:49.985Z,7.40
2018-07-29T08:46:17.017Z,5.70
2018-07-29T08:48:44.038Z,6.83
2018-07-29T08:51:10.990Z,13.43
2018-07-29T08:53:37.997Z,5.50
2018-07-29T08:56:05.050Z,4.67
2018-07-29T08:58:32.057Z,7.77
2018-07-29T09:00:59.025Z,5.17
2018-07-29T09:03:26.013Z,5.63
2018-07-29T09:05:52.973Z,3.93
2018-07-29T09:08:19.960Z,4.30
2018-07-29T09:10:47.256Z,7.73
2018-07-29T09:13:14.270Z,3.70
2018-07-29T09:15:41.349Z,4.37
2018-07-29T09:18:08.326Z,4.17
2018-07-29T09:20:35.330Z,4.40
2018-07-29T09:23:02.373Z,6.43
2018-07-29T09:25:29.346Z,7.97
2018-07-29T09:27:56.360Z,5.00
2018-07-29T09:30:23.425Z,4.97
2018-07-29T09:32:50.394Z,5.10
2018-07-29T09:35:17.518Z,8.23
2018-07-29T09:37:44.513Z,6.67
2018-07-29T09:40:11.561Z,7.60
2018-07-29T09:42:38.722Z,4.00
2018-07-29T09:45:06.066Z,4.77
2018-07-29T09:47:33.069Z,7.33
2018-07-29T09:50:00.037Z,6.57
2018-07-29T09:52:27.040Z,5.00
2018-07-29T09:54:54.389Z,4.33
2018-07-29T09:57:21.405Z,7.17
2018-07-29T09:59:48.626Z,6.33
2018-07-29T10:02:15.605Z,3.60
2018-07-29T10:04:42.730Z,6.40
2018-07-29T10:07:09.700Z,6.47
2018-07-29T10:09:36.737Z,7.10
2018-07-29T10:12:03.803Z,5.27
2018-07-29T10:14:31.037Z,4.03
2018-07-29T10:16:59.503Z,4.37
2018-07-29T10:19:26.521Z,7.97
2018-07-29T10:21:53.521Z,6.03
2018-07-29T10:24:20.516Z,4.80
2018-07-29T10:26:47.501Z,6.30
2018-07-29T10:29:14.534Z,5.23
2018-07-29T10:31:41.622Z,6.17
2018-07-29T10:34:08.613Z,9.37
2018-07-29T10:36:35.605Z,5.97
2018-07-29T10:39:03.401Z,5.50
2018-07-29T10:41:30.385Z,6.67
2018-07-29T10:43:57.375Z,5.83
2018-07-29T10:46:24.405Z,6.13
2018-07-29T10:48:51.401Z,5.33
2018-07-29T10:51:18.429Z,5.20
2018-07-29T10:53:45.453Z,7.47
2018-07-29T10:56:12.429Z,3.87
2018-07-29T10:58:39.504Z,6.63
2018-07-29T11:01:06.495Z,4.83
2018-07-29T11:03:33.541Z,5.03
2018-07-29T11:06:00.565Z,4.70
2018-07-29T11:08:27.617Z,8.60
2018-07-29T11:10:54.585Z,7.40
2018-07-29T11:13:21.569Z,5.27
2018-07-29T11:15:48.947Z,5.13
2018-07-29T11:18:15.987Z,9.33
2018-07-29T11:20:42.983Z,4.73
2018-07-29T11:23:10.082Z,4.90
2018-07-29T11:25:37.078Z,5.07
2018-07-29T11:28:04.061Z,6.60
2018-07-29T11:30:31.161Z,4.83
2018-07-29T11:32:58.153Z,5.37
2018-07-29T11:35:25.169Z,3.40
2018-07-29T11:37:52.149Z,5.60
2018-07-29T11:40:19.170Z,6.23
2018-07-29T11:42:46.160Z,4.80
2018-07-29T11:45:13.129Z,3.30
2018-07-29T11:47:40.113Z,2.77
2018-07-29T11:50:07.204Z,4.90
2018-07-29T11:52:34.206Z,6.00
2018-07-29T11:55:01.209Z,5.60
2018-07-29T11:57:28.643Z,4.77
2018-07-29T11:59:55.589Z,4.80
2018-07-29T12:02:22.557Z,3.57
2018-07-29T12:04:49.533Z,4.87
2018-07-29T12:07:16.498Z,3.50
2018-07-29T12:09:43.489Z,6.73
2018-07-29T12:12:10.470Z,7.27
2018-07-29T12:14:37.457Z,5.03
2018-07-29T12:17:04.505Z,5.13
2018-07-29T12:19:31.597Z,5.47
2018-07-29T12:21:58.581Z,3.90
2018-07-29T12:24:25.837Z,3.23
2018-07-29T12:26:52.816Z,3.77
2018-07-29T12:29:19.813Z,2.63
2018-07-29T12:31:46.777Z,3.60
2018-07-29T12:34:13.796Z,4.63
2018-07-29T12:36:40.777Z,3.23
2018-07-29T12:39:08.997Z,5.80
2018-07-29T12:41:36.039Z,7.60
2018-07-29T12:44:03.078Z,4.90
2018-07-29T12:46:30.157Z,5.17
2018-07-29T12:48:57.189Z,3.63
2018-07-29T12:51:24.236Z,3.27
2018-07-29T12:53:51.227Z,3.23
2018-07-29T12:56:18.237Z,5.40
2018-07-29T12:58:45.233Z,5.03
2018-07-29T13:01:12.225Z,5.37
2018-07-29T13:03:39.209Z,4.90
2018-07-29T13:06:06.276Z,4.17
2018-07-29T13:08:33.197Z,3.13
2018-07-29T13:11:00.250Z,3.53
2018-07-29T13:13:27.335Z,3.30
2018-07-29T13:15:54.337Z,4.37
2018-07-29T13:18:21.352Z,4.70
2018-07-29T13:20:48.481Z,4.53
2018-07-29T13:23:15.482Z,6.20
2018-07-29T13:25:42.568Z,5.33
2018-07-29T13:28:09.536Z,5.20
2018-07-29T13:30:36.741Z,4.07
2018-07-29T13:33:03.751Z,4.23
2018-07-29T13:35:30.788Z,4.07
2018-07-29T13:37:57.781Z,3.80
2018-07-29T13:40:24.785Z,6.30
2018-07-29T13:42:51.760Z,7.27
2018-07-29T13:45:18.769Z,4.17
2018-07-29T13:47:46.133Z,4.67
2018-07-29T13:50:13.181Z,3.57
2018-07-29T13:52:40.165Z,7.10
2018-07-29T13:55:08.671Z,5.73
2018-07-29T13:57:35.841Z,4.53
2018-07-29T14:00:04.421Z,4.20
2018-07-29T14:02:31.498Z,5.57
2018-07-29T14:04:58.465Z,4.13
2018-07-29T14:07:25.502Z,7.03
2018-07-29T14:09:52.637Z,6.17
2018-07-29T14:12:19.654Z,5.90
2018-07-29T14:14:46.737Z,4.80
2018-07-29T14:17:13.729Z,4.47
2018-07-29T14:19:40.713Z,5.17
2018-07-29T14:22:07.737Z,5.53
2018-07-29T14:24:34.745Z,4.57
2018-07-29T14:27:01.749Z,4.17
2018-07-29T14:29:28.769Z,5.40
2018-07-29T14:31:55.792Z,6.20
2018-07-29T14:34:23.196Z,5.00
2018-07-29T14:36:50.229Z,4.10
2018-07-29T14:39:17.609Z,4.70
2018-07-29T14:41:44.609Z,8.63
2018-07-29T14:44:11.603Z,5.17
2018-07-29T14:46:38.630Z,5.03
2018-07-29T14:49:05.792Z,5.03
2018-07-29T14:51:32.810Z,4.30
2018-07-29T14:53:59.785Z,3.80
2018-07-29T14:56:26.782Z,3.20
2018-07-29T14:58:53.778Z,4.57
2018-07-29T15:01:20.770Z,5.90
2018-07-29T15:03:47.885Z,3.33
2018-07-29T15:06:14.937Z,6.40
2018-07-29T15:08:42.067Z,6.43
2018-07-29T15:11:09.069Z,5.03
2018-07-29T15:13:36.045Z,3.80
2018-07-29T15:16:03.071Z,4.77
2018-07-29T15:18:30.070Z,3.83
2018-07-29T15:20:57.058Z,3.87
2018-07-29T15:23:24.209Z,5.00
2018-07-29T15:25:51.176Z,3.73
2018-07-29T15:28:19.005Z,4.47
2018-07-29T15:30:45.953Z,3.77
2018-07-29T15:33:12.973Z,3.90
2018-07-29T15:35:40.005Z,3.83
2018-07-29T15:38:07.012Z,3.43
2018-07-29T15:40:34.168Z,3.60
2018-07-29T15:43:01.033Z,4.40
2018-07-29T15:45:28.017Z,4.10
2018-07-29T15:47:54.985Z,3.40
2018-07-29T15:50:21.978Z,3.13
2018-07-29T15:52:48.969Z,4.23
2018-07-29T15:55:15.949Z,4.40
2018-07-29T15:57:42.938Z,6.00
2018-07-29T16:00:10.669Z,4.13
2018-07-29T16:02:37.886Z,3.63
2018-07-29T16:05:05.161Z,3.97
2018-07-29T16:07:32.195Z,3.77
2018-07-29T16:09:59.185Z,4.37
2018-07-29T16:12:26.268Z,4.90
2018-07-29T16:14:53.296Z,3.60
2018-07-29T16:17:20.291Z,4.30
2018-07-29T16:19:47.418Z,4.17
2018-07-29T16:22:14.542Z,4.10
2018-07-29T16:24:41.527Z,3.53
2018-07-29T16:27:08.543Z,4.50
2018-07-29T16:29:35.520Z,4.20
2018-07-29T16:32:02.541Z,3.73
2018-07-29T16:34:29.529Z,3.97
2018-07-29T16:36:56.521Z,4.07
2018-07-29T16:39:23.551Z,3.77
2018-07-29T16:41:50.553Z,3.77
2018-07-29T16:44:17.548Z,3.87
2018-07-29T16:46:44.529Z,4.67
2018-07-29T16:49:12.345Z,3.73
2018-07-29T16:51:39.333Z,5.53
2018-07-29T16:54:06.372Z,4.60
2018-07-29T16:56:33.394Z,5.30
2018-07-29T16:59:00.404Z,3.67
2018-07-29T17:01:27.373Z,4.27
2018-07-29T17:03:54.361Z,3.97
2018-07-29T17:06:21.587Z,3.80
2018-07-29T17:08:48.901Z,4.10
2018-07-29T17:11:15.925Z,4.17
2018-07-29T17:13:42.904Z,3.97
2018-07-29T17:16:09.993Z,5.10
2018-07-29T17:18:37.054Z,4.13
2018-07-29T17:21:04.105Z,6.13
2018-07-29T17:23:31.161Z,4.90
2018-07-29T17:25:58.384Z,5.20
2018-07-29T17:28:25.453Z,7.00
2018-07-29T17:30:52.445Z,6.50
2018-07-29T17:33:19.445Z,5.70
2018-07-29T17:35:46.432Z,5.77
2018-07-29T17:38:14.084Z,4.90
2018-07-29T17:40:41.065Z,5.20
2018-07-29T17:43:08.101Z,5.00
2018-07-29T17:45:35.129Z,5.63
2018-07-29T17:48:02.238Z,6.30
2018-07-29T17:50:29.246Z,6.40
2018-07-29T17:52:56.228Z,6.50
2018-07-29T17:55:23.192Z,6.83
2018-07-29T17:57:50.193Z,5.47
2018-07-29T18:00:17.192Z,6.30
2018-07-29T18:02:44.157Z,5.00
2018-07-29T18:05:11.182Z,4.50
2018-07-29T18:07:38.161Z,4.37
2018-07-29T18:10:05.442Z,4.67
2018-07-29T18:12:32.423Z,4.53
2018-07-29T18:14:59.508Z,5.27
2018-07-29T18:17:26.496Z,4.70
2018-07-29T18:19:53.527Z,4.70
2018-07-29T18:22:20.506Z,4.73
2018-07-29T18:24:47.509Z,6.33
2018-07-29T18:27:14.490Z,5.00
2018-07-29T18:29:41.744Z,4.43
2018-07-29T18:32:08.713Z,4.53
2018-07-29T18:34:35.685Z,6.30
2018-07-29T18:37:02.741Z,5.07
2018-07-29T18:39:29.792Z,4.40
2018-07-29T18:41:56.854Z,4.77
2018-07-29T18:44:23.985Z,4.77
2018-07-29T18:46:51.021Z,5.23
2018-07-29T18:49:18.070Z,4.50
2018-07-29T18:51:45.099Z,4.60
2018-07-29T18:54:12.114Z,4.80
2018-07-29T18:56:39.117Z,4.67
2018-07-29T18:59:06.099Z,4.20
2018-07-29T19:01:33.113Z,4.80
2018-07-29T19:04:00.149Z,4.43
2018-07-29T19:06:27.268Z,5.37
2018-07-29T19:08:54.406Z,5.13
2018-07-29T19:11:21.527Z,6.13
2018-07-29T19:13:48.497Z,5.23
2018-07-29T19:16:15.493Z,7.53
2018-07-29T19:18:42.653Z,5.30
2018-07-29T19:21:09.677Z,6.00
2018-07-29T19:23:36.744Z,3.80
2018-07-29T19:26:03.734Z,4.33
2018-07-29T19:28:30.721Z,5.03
2018-07-29T19:30:57.833Z,4.53
2018-07-29T19:33:24.810Z,4.87
2018-07-29T19:35:52.060Z,4.57
2018-07-29T19:38:19.030Z,5.40
2018-07-29T19:40:46.725Z,4.37
2018-07-29T19:43:13.749Z,4.23
2018-07-29T19:45:40.750Z,4.70
2018-07-29T19:48:07.901Z,5.20
2018-07-29T19:50:34.943Z,4.50
2018-07-29T19:53:02.348Z,5.00
2018-07-29T19:55:29.350Z,4.93
2018-07-29T19:57:56.446Z,4.60
2018-07-29T20:00:23.460Z,6.90
2018-07-29T20:02:50.460Z,5.20
2018-07-29T20:05:17.462Z,6.40
2018-07-29T20:07:44.465Z,4.13
2018-07-29T20:10:11.452Z,5.87
2018-07-29T20:12:38.656Z,4.60
2018-07-29T20:15:05.830Z,4.53
2018-07-29T20:17:32.928Z,4.47
2018-07-29T20:19:59.949Z,4.57
2018-07-29T20:22:26.946Z,4.23
2018-07-29T20:24:53.953Z,4.77
2018-07-29T20:27:21.131Z,5.00
2018-07-29T20:29:48.159Z,4.70
2018-07-29T20:32:15.173Z,6.73
2018-07-29T20:34:42.177Z,5.30
2018-07-29T20:39:42.070Z,4.37
2018-07-29T20:42:08.820Z,4.63
2018-07-29T20:44:35.895Z,5.40
2018-07-29T20:47:02.937Z,6.10
2018-07-29T20:49:29.922Z,4.47
2018-07-29T20:51:56.993Z,4.97
2018-07-29T20:54:24.040Z,4.80
2018-07-29T20:56:51.014Z,5.10
2018-07-29T20:59:18.025Z,5.63
2018-07-29T21:01:45.070Z,4.50
2018-07-29T21:04:12.030Z,5.33
2018-07-29T21:06:39.024Z,5.00
2018-07-29T21:09:08.339Z,4.40
2018-07-29T21:11:35.334Z,5.30
2018-07-29T21:14:02.409Z,4.50
2018-07-29T21:16:29.412Z,5.43
2018-07-29T21:18:56.380Z,4.20
2018-07-29T21:21:23.442Z,5.57
2018-07-29T21:23:50.409Z,5.33
2018-07-29T21:26:17.592Z,5.50
2018-07-29T21:28:44.610Z,4.73
2018-07-29T21:31:11.629Z,4.77
2018-07-29T21:33:38.625Z,4.87
2018-07-29T21:36:05.629Z,5.57
2018-07-29T21:38:32.635Z,4.80
2018-07-29T21:40:59.767Z,5.10
2018-07-29T21:43:26.614Z,4.30
2018-07-29T21:45:53.637Z,4.63
2018-07-29T21:48:20.617Z,4.87
2018-07-29T21:50:47.693Z,5.47
2018-07-29T21:53:14.780Z,4.50
2018-07-29T21:55:41.789Z,6.70
2018-07-29T21:58:08.762Z,5.03
2018-07-29T22:00:42.793Z,5.07
2018-07-29T22:03:10.405Z,5.87
2018-07-29T22:05:37.496Z,5.00
2018-07-29T22:08:04.925Z,4.67
2018-07-29T22:10:31.926Z,5.17
2018-07-29T22:12:59.025Z,7.20
2018-07-29T22:15:26.134Z,4.80
2018-07-29T22:17:53.096Z,5.83
2018-07-29T22:20:20.122Z,4.80
2018-07-29T22:22:47.169Z,6.07
2018-07-29T22:25:18.200Z,6.10
2018-07-29T22:27:45.178Z,5.83
2018-07-29T22:30:18.085Z,5.73
2018-07-29T22:32:45.098Z,5.60
2018-07-29T22:35:12.089Z,5.20
2018-07-29T22:37:39.394Z,5.70
2018-07-29T22:40:06.425Z,5.20
2018-07-29T22:42:33.461Z,5.07
2018-07-29T22:45:00.452Z,5.57
2018-07-29T22:47:27.461Z,6.50
2018-07-29T22:49:54.471Z,5.60
2018-07-29T22:52:21.546Z,5.47
2018-07-29T22:54:48.581Z,6.47
2018-07-29T22:57:15.601Z,5.30
2018-07-29T22:59:42.604Z,7.00
2018-07-29T23:02:10.192Z,5.53
2018-07-29T23:04:37.170Z,6.40
2018-07-29T23:07:04.145Z,8.43
2018-07-29T23:09:31.131Z,6.77
2018-07-29T23:11:58.140Z,6.00
2018-07-29T23:14:25.149Z,5.73
2018-07-29T23:16:52.131Z,6.60
2018-07-29T23:19:19.097Z,5.77
2018-07-29T23:21:46.092Z,6.13
2018-07-29T23:24:13.050Z,6.30
2018-07-29T23:26:40.045Z,6.47
2018-07-29T23:29:07.049Z,6.60
2018-07-29T23:31:34.093Z,6.20
2018-07-29T23:34:01.061Z,6.47
2018-07-29T23:36:28.064Z,6.40
2018-07-29T23:38:55.278Z,6.80
2018-07-29T23:41:22.282Z,6.10
2018-07-29T23:43:49.718Z,6.20
2018-07-29T23:46:16.709Z,7.07
2018-07-29T23:48:43.888Z,6.80
2018-07-29T23:51:10.897Z,6.80
2018-07-29T23:53:37.877Z,6.47
2018-07-29T23:56:04.943Z,6.67
2018-07-29T23:58:31.982Z,5.70
